Time;durP1;ratioP1;P1;durP2;ratioP2;P2;SDS_P1;SDS_P2;PMS_P1;PMS_P2;Temp;Humidity;BMP_temperature;BMP_pressure;BME280_temperature;BME280_humidity;BME280_pressure;Samples;Min_cycle;Max_cycle;Signal;HPM_P1;HPM_P2
2021/03/30 00:00:23;;;;;;;10.23;4.73;;;;;;;;;;5087461;28;20078;-67
2021/03/30 00:02:48;;;;;;;12.00;4.57;;;;;;;;;;5089076;28;20024;-67
2021/03/30 00:05:14;;;;;;;8.47;4.17;;;;;;;;;;5071209;28;20296;-67
2021/03/30 00:07:39;;;;;;;9.70;4.33;;;;;;;;;;5086607;28;20052;-67
2021/03/30 00:10:05;;;;;;;8.43;4.17;;;;;;;;;;5088435;28;20457;-67
2021/03/30 00:12:31;;;;;;;13.23;4.27;;;;;;;;;;5090124;28;20024;-67
2021/03/30 00:14:56;;;;;;;10.77;4.27;;;;;;;;;;5087582;28;20024;-67
2021/03/30 00:17:21;;;;;;;12.37;4.80;;;;;;;;;;5092013;28;20028;-67
2021/03/30 00:19:46;;;;;;;9.20;4.70;;;;;;;;;;5092121;28;20020;-67
2021/03/30 00:22:12;;;;;;;12.00;4.90;;;;;;;;;;5091398;28;20024;-67
2021/03/30 00:24:37;;;;;;;12.23;5.27;;;;;;;;;;5088074;28;20020;-67
2021/03/30 00:27:02;;;;;;;13.07;4.93;;;;;;;;;;5088937;28;20024;-67
2021/03/30 00:29:28;;;;;;;12.63;5.20;;;;;;;;;;5089911;28;20074;-67
2021/03/30 00:31:53;;;;;;;10.20;4.67;;;;;;;;;;5090777;28;20024;-67
2021/03/30 00:34:18;;;;;;;10.07;4.20;;;;;;;;;;5087200;28;20021;-67
2021/03/30 00:36:43;;;;;;;8.70;3.90;;;;;;;;;;5089369;28;20377;-67
2021/03/30 00:39:09;;;;;;;11.23;4.73;;;;;;;;;;5091400;28;20028;-67
2021/03/30 00:41:43;;;;;;;11.80;5.33;;;;;;;;;;5088609;28;20113;-67
2021/03/30 00:44:10;;;;;;;11.97;4.60;;;;;;;;;;5089018;28;20472;-67
2021/03/30 00:46:35;;;;;;;13.37;4.70;;;;;;;;;;5090869;28;20750;-67
2021/03/30 00:49:00;;;;;;;9.20;4.17;;;;;;;;;;5090548;28;20274;-67
2021/03/30 00:51:25;;;;;;;9.33;4.27;;;;;;;;;;5089607;28;20024;-67
2021/03/30 00:53:51;;;;;;;12.77;4.40;;;;;;;;;;5085165;28;20029;-67
2021/03/30 00:56:16;;;;;;;10.93;4.07;;;;;;;;;;5090879;28;20020;-67
2021/03/30 00:58:41;;;;;;;10.17;4.30;;;;;;;;;;5088602;28;20016;-67
2021/03/30 01:01:06;;;;;;;12.73;5.00;;;;;;;;;;5091018;28;20052;-67
2021/03/30 01:03:32;;;;;;;17.20;5.10;;;;;;;;;;5089938;28;20044;-67
2021/03/30 01:05:57;;;;;;;11.63;4.83;;;;;;;;;;5091681;28;20043;-67
2021/03/30 01:08:30;;;;;;;13.90;4.33;;;;;;;;;;5086309;28;20024;-66
2021/03/30 01:11:10;;;;;;;12.30;4.87;;;;;;;;;;5092491;28;20115;-67
2021/03/30 01:13:38;;;;;;;9.43;4.57;;;;;;;;;;5091792;28;20277;-66
2021/03/30 01:16:08;;;;;;;19.20;5.30;;;;;;;;;;5089668;28;20660;-67
2021/03/30 01:18:39;;;;;;;15.20;5.47;;;;;;;;;;5087099;28;20266;-67
2021/03/30 01:21:13;;;;;;;13.30;5.67;;;;;;;;;;5089950;28;20841;-67
2021/03/30 01:23:39;;;;;;;11.33;4.83;;;;;;;;;;5087544;28;20286;-67
2021/03/30 01:26:16;;;;;;;11.43;5.33;;;;;;;;;;5088550;28;20031;-66
2021/03/30 01:29:00;;;;;;;10.50;5.37;;;;;;;;;;5092160;28;20024;-66
2021/03/30 01:31:25;;;;;;;11.27;4.93;;;;;;;;;;5088520;28;20367;-66
2021/03/30 01:33:52;;;;;;;11.53;5.00;;;;;;;;;;5089166;28;20098;-67
2021/03/30 01:36:18;;;;;;;10.60;5.50;;;;;;;;;;5089801;28;20418;-67
2021/03/30 01:38:44;;;;;;;9.90;5.10;;;;;;;;;;5089582;28;20273;-66
2021/03/30 01:41:09;;;;;;;9.53;4.77;;;;;;;;;;5090993;28;20020;-66
2021/03/30 01:43:35;;;;;;;11.07;5.07;;;;;;;;;;5087275;28;20464;-66
2021/03/30 01:46:00;;;;;;;11.63;5.87;;;;;;;;;;5089972;28;20409;-67
2021/03/30 01:48:26;;;;;;;13.37;4.90;;;;;;;;;;5091151;28;20020;-66
2021/03/30 01:50:52;;;;;;;15.53;4.90;;;;;;;;;;5088349;28;20424;-67
2021/03/30 01:53:19;;;;;;;14.67;5.57;;;;;;;;;;5086855;28;20098;-67
2021/03/30 01:55:45;;;;;;;11.60;4.47;;;;;;;;;;5090833;28;20122;-66
2021/03/30 01:58:11;;;;;;;13.30;4.97;;;;;;;;;;5090189;28;20274;-66
2021/03/30 02:00:37;;;;;;;13.53;4.60;;;;;;;;;;5090805;28;20358;-66
2021/03/30 02:03:05;;;;;;;12.43;4.87;;;;;;;;;;5089133;28;20316;-66
2021/03/30 02:05:31;;;;;;;9.27;4.87;;;;;;;;;;5090022;28;20461;-66
2021/03/30 02:07:58;;;;;;;15.17;5.27;;;;;;;;;;5084682;28;20338;-66
2021/03/30 02:11:07;;;;;;;13.63;5.40;;;;;;;;;;5087624;28;20016;-66
2021/03/30 02:13:22;;;;;;;12.40;5.30;;;;;;;;;;5079934;28;20317;-67
2021/03/30 02:15:48;;;;;;;11.80;5.07;;;;;;;;;;5089592;28;20281;-67
2021/03/30 02:18:14;;;;;;;12.53;5.27;;;;;;;;;;5088218;28;20667;-67
2021/03/30 02:20:40;;;;;;;16.33;5.83;;;;;;;;;;5090505;28;20032;-66
2021/03/30 02:23:11;;;;;;;10.90;5.20;;;;;;;;;;5085253;28;20310;-66
2021/03/30 02:25:39;;;;;;;11.30;5.03;;;;;;;;;;5090324;28;20016;-66
2021/03/30 02:28:06;;;;;;;13.67;5.30;;;;;;;;;;5086697;28;20818;-66
2021/03/30 02:30:33;;;;;;;11.40;5.03;;;;;;;;;;5087732;28;20764;-66
2021/03/30 02:32:59;;;;;;;12.83;5.60;;;;;;;;;;5085805;28;20270;-66
2021/03/30 02:35:25;;;;;;;16.90;5.17;;;;;;;;;;5088270;28;20031;-66
2021/03/30 02:37:51;;;;;;;13.27;5.77;;;;;;;;;;5089135;28;20517;-66
2021/03/30 02:40:19;;;;;;;10.37;4.57;;;;;;;;;;5086022;28;20395;-66
2021/03/30 02:42:46;;;;;;;11.53;5.07;;;;;;;;;;5085081;28;20028;-66
2021/03/30 02:45:11;;;;;;;12.93;5.63;;;;;;;;;;5086966;28;20286;-67
2021/03/30 02:47:37;;;;;;;14.70;5.40;;;;;;;;;;5090149;28;20129;-67
2021/03/30 02:50:04;;;;;;;9.00;4.57;;;;;;;;;;5087241;28;20418;-67
2021/03/30 02:52:30;;;;;;;17.13;5.50;;;;;;;;;;5084939;28;20028;-67
2021/03/30 02:54:55;;;;;;;11.50;5.53;;;;;;;;;;5087365;28;20744;-67
2021/03/30 02:57:23;;;;;;;11.30;5.30;;;;;;;;;;5088552;28;20026;-67
2021/03/30 02:59:48;;;;;;;16.17;5.70;;;;;;;;;;5088348;28;20699;-67
2021/03/30 03:02:14;;;;;;;12.63;5.30;;;;;;;;;;5086508;28;20310;-67
2021/03/30 03:04:40;;;;;;;11.40;5.33;;;;;;;;;;5085421;28;20051;-67
2021/03/30 03:07:05;;;;;;;9.50;4.77;;;;;;;;;;5089618;28;20055;-67
2021/03/30 03:09:33;;;;;;;12.97;5.10;;;;;;;;;;5089779;28;20024;-67
2021/03/30 03:11:58;;;;;;;13.00;5.17;;;;;;;;;;5086788;28;20058;-67
2021/03/30 03:14:24;;;;;;;13.33;5.30;;;;;;;;;;5088962;28;20254;-67
2021/03/30 03:16:50;;;;;;;10.90;5.30;;;;;;;;;;5086735;28;20033;-67
2021/03/30 03:19:16;;;;;;;12.73;5.20;;;;;;;;;;5090496;28;20098;-67
2021/03/30 03:21:42;;;;;;;10.83;4.87;;;;;;;;;;5083288;28;20039;-67
2021/03/30 03:24:12;;;;;;;12.87;5.00;;;;;;;;;;5087892;28;20331;-67
2021/03/30 03:26:38;;;;;;;16.60;6.33;;;;;;;;;;5086660;28;20020;-67
2021/03/30 03:29:09;;;;;;;10.23;4.57;;;;;;;;;;5084558;28;20685;-67
2021/03/30 03:31:35;;;;;;;14.33;5.23;;;;;;;;;;5089162;28;20278;-67
2021/03/30 03:34:01;;;;;;;14.43;6.23;;;;;;;;;;5087919;28;20458;-67
2021/03/30 03:36:47;;;;;;;13.83;4.93;;;;;;;;;;5090019;28;20095;-67
2021/03/30 03:39:13;;;;;;;9.80;4.40;;;;;;;;;;5087610;28;20047;-67
2021/03/30 03:41:40;;;;;;;12.43;5.40;;;;;;;;;;5086358;28;20063;-67
2021/03/30 03:44:05;;;;;;;15.97;5.13;;;;;;;;;;5090215;28;20016;-67
2021/03/30 03:46:31;;;;;;;15.20;5.77;;;;;;;;;;5091032;28;20035;-67
2021/03/30 03:48:56;;;;;;;10.63;4.77;;;;;;;;;;5093308;28;20469;-67
2021/03/30 03:51:22;;;;;;;10.40;4.27;;;;;;;;;;5086836;28;20032;-67
2021/03/30 03:53:48;;;;;;;8.87;4.20;;;;;;;;;;5079912;28;20026;-67
2021/03/30 03:56:19;;;;;;;9.10;4.33;;;;;;;;;;5093625;28;20043;-67
2021/03/30 03:58:46;;;;;;;9.03;4.17;;;;;;;;;;5091283;28;20127;-67
2021/03/30 04:01:13;;;;;;;9.97;4.83;;;;;;;;;;5092876;28;20534;-67
2021/03/30 04:03:46;;;;;;;12.03;4.43;;;;;;;;;;5089175;28;20084;-67
2021/03/30 04:06:14;;;;;;;12.87;4.43;;;;;;;;;;5090092;28;20376;-67
2021/03/30 04:08:55;;;;;;;10.60;4.90;;;;;;;;;;5086642;28;20579;-67
2021/03/30 04:11:21;;;;;;;13.63;4.90;;;;;;;;;;5091771;28;20503;-67
2021/03/30 04:13:47;;;;;;;13.77;4.90;;;;;;;;;;5078838;28;20602;-67
2021/03/30 04:16:13;;;;;;;13.23;4.50;;;;;;;;;;5092367;28;20028;-67
2021/03/30 04:18:39;;;;;;;13.73;4.23;;;;;;;;;;5075735;28;20077;-67
2021/03/30 04:21:04;;;;;;;9.87;4.60;;;;;;;;;;5082836;28;20388;-67
2021/03/30 04:23:30;;;;;;;16.17;5.10;;;;;;;;;;5091778;28;20032;-67
2021/03/30 04:25:56;;;;;;;10.80;5.20;;;;;;;;;;5094052;28;20054;-67
2021/03/30 04:28:21;;;;;;;11.07;5.00;;;;;;;;;;5090740;28;20077;-67
2021/03/30 04:30:46;;;;;;;11.37;5.07;;;;;;;;;;5092857;28;20103;-67
2021/03/30 04:33:12;;;;;;;10.90;4.90;;;;;;;;;;5087344;28;20099;-67
2021/03/30 04:35:37;;;;;;;11.03;4.80;;;;;;;;;;5090982;28;20476;-67
2021/03/30 04:38:02;;;;;;;11.90;5.93;;;;;;;;;;5087451;28;20107;-67
2021/03/30 04:40:28;;;;;;;10.73;4.60;;;;;;;;;;5093350;28;20055;-67
2021/03/30 04:42:53;;;;;;;15.53;5.50;;;;;;;;;;5095695;28;20090;-67
2021/03/30 04:45:18;;;;;;;11.20;5.00;;;;;;;;;;5093070;28;20077;-67
2021/03/30 04:47:44;;;;;;;12.43;5.17;;;;;;;;;;5092006;28;20034;-67
2021/03/30 04:50:09;;;;;;;12.80;5.37;;;;;;;;;;5091679;28;20035;-67
2021/03/30 04:52:37;;;;;;;11.30;5.10;;;;;;;;;;5085638;28;20033;-67
2021/03/30 04:55:04;;;;;;;13.73;5.10;;;;;;;;;;5089603;28;20390;-67
2021/03/30 04:57:29;;;;;;;11.73;4.70;;;;;;;;;;5093616;28;20061;-67
2021/03/30 04:59:54;;;;;;;11.90;4.53;;;;;;;;;;5092275;28;20107;-67
2021/03/30 05:02:19;;;;;;;11.77;5.00;;;;;;;;;;5092522;28;20016;-67
2021/03/30 05:04:45;;;;;;;12.27;5.50;;;;;;;;;;5087127;28;20392;-67
2021/03/30 05:07:10;;;;;;;11.43;5.17;;;;;;;;;;5092959;28;20050;-67
2021/03/30 05:09:35;;;;;;;10.57;4.90;;;;;;;;;;5087815;28;20030;-67
2021/03/30 05:12:01;;;;;;;15.53;5.53;;;;;;;;;;5089835;28;20081;-67
2021/03/30 05:14:26;;;;;;;14.60;4.77;;;;;;;;;;5069583;28;20046;-67
2021/03/30 05:16:52;;;;;;;12.60;5.20;;;;;;;;;;5089539;28;20024;-67
2021/03/30 05:19:17;;;;;;;15.90;5.67;;;;;;;;;;5085951;28;20016;-67
2021/03/30 05:21:42;;;;;;;17.33;5.10;;;;;;;;;;5072301;28;20028;-67
2021/03/30 05:24:08;;;;;;;11.97;5.13;;;;;;;;;;5093622;28;20380;-67
2021/03/30 05:26:33;;;;;;;13.20;5.20;;;;;;;;;;5090851;28;20385;-67
2021/03/30 05:28:58;;;;;;;12.53;4.93;;;;;;;;;;5085534;28;20408;-67
2021/03/30 05:31:24;;;;;;;14.50;5.77;;;;;;;;;;5089600;28;20024;-67
2021/03/30 05:33:49;;;;;;;13.67;4.90;;;;;;;;;;5089181;28;20099;-67
2021/03/30 05:36:14;;;;;;;11.23;5.07;;;;;;;;;;5085980;28;20028;-67
2021/03/30 05:38:40;;;;;;;11.27;4.93;;;;;;;;;;5088421;28;20036;-67
2021/03/30 05:41:06;;;;;;;10.57;4.60;;;;;;;;;;5086648;28;20036;-67
2021/03/30 05:43:32;;;;;;;11.50;4.87;;;;;;;;;;5089165;28;20036;-67
2021/03/30 05:46:00;;;;;;;12.33;4.60;;;;;;;;;;5090911;28;20695;-67
2021/03/30 05:48:26;;;;;;;12.47;5.27;;;;;;;;;;5089499;28;20587;-67
2021/03/30 05:50:51;;;;;;;12.97;5.97;;;;;;;;;;5086528;28;20024;-67
2021/03/30 05:53:17;;;;;;;11.23;4.87;;;;;;;;;;5086814;28;20022;-67
2021/03/30 05:55:43;;;;;;;10.97;4.53;;;;;;;;;;5086226;28;20660;-67
2021/03/30 05:58:09;;;;;;;12.30;5.47;;;;;;;;;;5088394;28;20388;-67
2021/03/30 06:00:38;;;;;;;10.80;4.40;;;;;;;;;;5088272;28;20028;-67
2021/03/30 06:03:04;;;;;;;13.30;4.33;;;;;;;;;;5087876;28;20048;-67
2021/03/30 06:05:30;;;;;;;11.07;4.20;;;;;;;;;;5092707;28;20407;-67
2021/03/30 06:07:59;;;;;;;12.00;4.33;;;;;;;;;;5087798;28;20026;-67
2021/03/30 06:10:26;;;;;;;10.03;4.33;;;;;;;;;;5090962;28;20024;-67
2021/03/30 06:12:51;;;;;;;9.73;4.30;;;;;;;;;;5084758;28;20024;-67
2021/03/30 06:15:17;;;;;;;11.53;3.90;;;;;;;;;;5086657;28;20506;-68
2021/03/30 06:17:49;;;;;;;9.80;4.27;;;;;;;;;;5090691;28;20028;-68
2021/03/30 06:20:24;;;;;;;15.02;4.07;;;;;;;;;;5091304;28;20070;-68
2021/03/30 06:22:53;;;;;;;9.90;4.00;;;;;;;;;;5087411;28;20076;-68
2021/03/30 06:25:37;;;;;;;12.93;4.60;;;;;;;;;;5088715;28;20468;-69
2021/03/30 06:28:13;;;;;;;12.47;4.23;;;;;;;;;;5084688;28;20036;-70
2021/03/30 06:30:57;;;;;;;9.90;4.03;;;;;;;;;;5084204;28;21469;-70
2021/03/30 06:33:23;;;;;;;10.97;4.30;;;;;;;;;;5086087;28;20186;-70
2021/03/30 06:35:48;;;;;;;9.20;4.13;;;;;;;;;;5085500;28;20119;-71
2021/03/30 06:38:14;;;;;;;10.97;4.07;;;;;;;;;;5082152;28;20502;-72
2021/03/30 06:40:41;;;;;;;11.93;4.33;;;;;;;;;;5085798;28;20031;-71
2021/03/30 06:46:09;;;;;;;9.95;4.25;;;;;;;;;;5087618;28;20027;-73
2021/03/30 06:48:34;;;;;;;13.47;5.30;;;;;;;;;;5086673;28;20028;-73
2021/03/30 06:51:21;;;;;;;15.77;5.40;;;;;;;;;;5085452;28;20396;-74
2021/03/30 06:53:46;;;;;;;13.30;5.40;;;;;;;;;;5088146;28;20039;-74
2021/03/30 06:56:12;;;;;;;12.50;4.87;;;;;;;;;;5087945;28;20385;-74
2021/03/30 06:58:56;;;;;;;11.07;4.63;;;;;;;;;;5085239;28;20035;-74
2021/03/30 07:01:22;;;;;;;16.50;5.10;;;;;;;;;;5086917;28;20027;-74
2021/03/30 07:03:48;;;;;;;11.40;5.00;;;;;;;;;;5088324;28;20141;-74
2021/03/30 07:06:14;;;;;;;11.17;5.03;;;;;;;;;;5084484;28;20024;-73
2021/03/30 07:08:39;;;;;;;14.40;4.97;;;;;;;;;;5084380;28;20027;-73
2021/03/30 07:11:05;;;;;;;17.73;5.17;;;;;;;;;;5087206;28;20024;-71
2021/03/30 07:13:30;;;;;;;11.03;5.00;;;;;;;;;;5084716;28;20051;-71
2021/03/30 07:16:00;;;;;;;13.57;4.80;;;;;;;;;;5081693;28;20032;-70
2021/03/30 07:18:35;;;;;;;14.93;5.30;;;;;;;;;;5084464;28;20380;-69
2021/03/30 07:21:02;;;;;;;11.37;5.10;;;;;;;;;;5082597;28;20115;-69
2021/03/30 07:23:29;;;;;;;14.53;5.47;;;;;;;;;;5089871;28;20189;-69
2021/03/30 07:26:15;;;;;;;13.43;5.20;;;;;;;;;;5090172;28;20073;-69
2021/03/30 07:28:43;;;;;;;13.37;5.17;;;;;;;;;;5084940;28;20040;-70
2021/03/30 07:31:12;;;;;;;12.10;4.97;;;;;;;;;;5089507;28;20035;-71
2021/03/30 07:33:49;;;;;;;12.15;5.50;;;;;;;;;;5091417;28;20105;-72
2021/03/30 07:36:16;;;;;;;14.88;5.40;;;;;;;;;;5085459;28;20038;-73
2021/03/30 07:38:45;;;;;;;13.65;5.25;;;;;;;;;;5090301;28;20028;-74
2021/03/30 07:41:12;;;;;;;12.10;5.22;;;;;;;;;;5078894;28;20044;-74
2021/03/30 07:43:37;;;;;;;15.65;5.00;;;;;;;;;;5089914;28;20463;-75
2021/03/30 07:46:04;;;;;;;11.63;5.35;;;;;;;;;;5091025;28;20067;-76
2021/03/30 07:48:31;;;;;;;12.18;4.93;;;;;;;;;;5091051;28;20028;-77
2021/03/30 07:51:07;;;;;;;15.20;6.40;;;;;;;;;;5076450;28;20035;-76
2021/03/30 07:53:50;;;;;;;12.25;4.90;;;;;;;;;;5085449;28;20024;-76
2021/03/30 07:56:21;;;;;;;12.45;5.10;;;;;;;;;;5091374;28;20111;-77
2021/03/30 07:58:47;;;;;;;11.88;4.30;;;;;;;;;;5090394;28;20030;-76
2021/03/30 08:01:13;;;;;;;11.82;5.20;;;;;;;;;;5068436;28;20484;-76
2021/03/30 08:03:40;;;;;;;13.80;5.10;;;;;;;;;;5089434;28;20064;-77
2021/03/30 08:06:21;;;;;;;12.77;5.50;;;;;;;;;;5090319;28;20073;-75
2021/03/30 08:08:54;;;;;;;16.30;5.47;;;;;;;;;;5090132;28;20038;-76
2021/03/30 08:14:04;;;;;;;13.98;4.90;;;;;;;;;;5086019;28;20117;-76
2021/03/30 08:16:29;;;;;;;12.18;4.78;;;;;;;;;;5085368;28;20472;-77
2021/03/30 08:18:57;;;;;;;11.75;4.80;;;;;;;;;;5075414;28;20028;-77
2021/03/30 08:21:23;;;;;;;11.52;4.20;;;;;;;;;;5088493;28;20020;-77
2021/03/30 08:23:51;;;;;;;9.88;4.78;;;;;;;;;;5086641;28;20031;-76
2021/03/30 08:26:18;;;;;;;11.70;4.80;;;;;;;;;;5091380;28;20077;-76
2021/03/30 08:28:50;;;;;;;11.05;4.50;;;;;;;;;;5088110;28;20016;-76
2021/03/30 08:31:16;;;;;;;12.20;4.60;;;;;;;;;;5093677;28;20376;-76
2021/03/30 08:33:42;;;;;;;12.38;4.72;;;;;;;;;;5094510;28;20032;-76
2021/03/30 08:36:14;;;;;;;14.95;5.28;;;;;;;;;;5094856;28;20043;-77
2021/03/30 08:38:41;;;;;;;11.32;4.57;;;;;;;;;;5095023;28;20023;-77
2021/03/30 08:41:06;;;;;;;12.00;4.60;;;;;;;;;;5091866;28;20019;-76
2021/03/30 08:43:31;;;;;;;10.52;4.40;;;;;;;;;;5091057;28;20084;-75
2021/03/30 08:46:04;;;;;;;10.23;4.53;;;;;;;;;;5076176;28;20031;-76
2021/03/30 08:48:32;;;;;;;10.43;4.30;;;;;;;;;;5094671;28;20365;-76
2021/03/30 08:50:58;;;;;;;10.02;4.40;;;;;;;;;;5092875;28;20376;-77
2021/03/30 08:53:24;;;;;;;11.65;4.65;;;;;;;;;;5093837;28;20026;-77
2021/03/30 08:55:49;;;;;;;9.40;3.97;;;;;;;;;;5094566;28;20111;-78
2021/03/30 08:58:16;;;;;;;10.18;4.28;;;;;;;;;;5084712;28;20059;-78
2021/03/30 09:00:41;;;;;;;12.82;4.40;;;;;;;;;;5093790;28;20024;-79
2021/03/30 09:03:09;;;;;;;13.23;4.63;;;;;;;;;;5077635;28;20047;-78
2021/03/30 09:05:37;;;;;;;13.15;4.60;;;;;;;;;;5096675;28;20035;-77
2021/03/30 09:08:03;;;;;;;10.38;4.30;;;;;;;;;;5087482;28;20036;-78
2021/03/30 09:10:28;;;;;;;10.02;4.40;;;;;;;;;;5096748;28;20020;-79
2021/03/30 09:13:09;;;;;;;9.25;4.22;;;;;;;;;;5096877;28;20078;-78
2021/03/30 09:15:35;;;;;;;10.15;4.13;;;;;;;;;;5091175;28;20028;-78
2021/03/30 09:18:00;;;;;;;11.65;4.32;;;;;;;;;;5092621;28;20417;-80
2021/03/30 09:20:27;;;;;;;9.10;4.20;;;;;;;;;;5089710;28;20024;-79
2021/03/30 09:22:54;;;;;;;9.63;4.22;;;;;;;;;;5095467;28;20024;-80
2021/03/30 09:27:46;;;;;;;9.23;4.25;;;;;;;;;;5089338;28;20055;-79
2021/03/30 09:30:15;;;;;;;10.23;4.05;;;;;;;;;;5087245;28;20469;-78
2021/03/30 09:32:42;;;;;;;13.00;4.90;;;;;;;;;;5094308;28;20024;-79
2021/03/30 09:35:09;;;;;;;9.88;4.22;;;;;;;;;;5068517;28;20024;-78
2021/03/30 09:37:35;;;;;;;9.90;4.70;;;;;;;;;;5074161;28;20093;-78
2021/03/30 09:40:04;;;;;;;11.32;5.45;;;;;;;;;;5084956;28;20024;-76
2021/03/30 09:42:29;;;;;;;9.93;4.10;;;;;;;;;;5078903;28;20103;-75
2021/03/30 09:44:54;;;;;;;12.38;5.85;;;;;;;;;;5091759;28;20150;-74
2021/03/30 09:47:21;;;;;;;9.00;3.80;;;;;;;;;;5092906;28;20073;-74
2021/03/30 09:49:46;;;;;;;11.13;4.68;;;;;;;;;;5092033;28;20012;-73
2021/03/30 09:52:11;;;;;;;8.88;3.90;;;;;;;;;;5068331;28;20021;-72
2021/03/30 09:54:42;;;;;;;8.77;3.90;;;;;;;;;;5080346;28;20024;-71
2021/03/30 09:57:20;;;;;;;8.60;3.97;;;;;;;;;;5072797;28;20029;-71
2021/03/30 09:59:46;;;;;;;10.05;4.30;;;;;;;;;;5086510;28;20039;-70
2021/03/30 10:02:12;;;;;;;10.50;4.03;;;;;;;;;;5073280;28;20021;-70
2021/03/30 10:04:37;;;;;;;12.90;4.47;;;;;;;;;;5085350;28;20074;-70
2021/03/30 10:07:15;;;;;;;7.93;4.25;;;;;;;;;;5093610;28;20510;-70
2021/03/30 10:09:59;;;;;;;12.80;4.57;;;;;;;;;;5093408;28;20104;-69
2021/03/30 10:12:30;;;;;;;12.15;4.70;;;;;;;;;;5093833;28;20064;-70
2021/03/30 10:14:56;;;;;;;13.45;4.75;;;;;;;;;;5092715;28;20126;-69
2021/03/30 10:17:21;;;;;;;8.85;3.90;;;;;;;;;;5093429;28;20040;-70
2021/03/30 10:19:51;;;;;;;12.00;4.57;;;;;;;;;;5083603;28;20024;-70
2021/03/30 10:22:43;;;;;;;12.43;4.10;;;;;;;;;;5093618;28;20027;-69
2021/03/30 10:25:09;;;;;;;10.52;4.50;;;;;;;;;;5081965;28;20058;-69
2021/03/30 10:27:35;;;;;;;10.25;3.70;;;;;;;;;;5088027;28;20052;-69
2021/03/30 10:30:02;;;;;;;8.70;3.90;;;;;;;;;;5084061;28;20020;-69
2021/03/30 10:32:32;;;;;;;16.17;7.97;;;;;;;;;;5092784;28;20012;-69
2021/03/30 10:34:57;;;;;;;9.43;3.65;;;;;;;;;;5090870;28;20024;-69
2021/03/30 10:37:23;;;;;;;12.60;5.07;;;;;;;;;;5093079;28;20384;-69
2021/03/30 10:39:48;;;;;;;9.85;4.25;;;;;;;;;;5089375;28;20039;-69
2021/03/30 10:42:15;;;;;;;10.87;4.13;;;;;;;;;;5074348;28;20435;-69
2021/03/30 10:44:44;;;;;;;14.13;4.50;;;;;;;;;;5087339;28;20035;-69
2021/03/30 10:47:16;;;;;;;12.10;4.40;;;;;;;;;;5083393;28;20024;-69
2021/03/30 10:49:41;;;;;;;13.00;4.32;;;;;;;;;;5091900;28;20031;-69
2021/03/30 10:52:11;;;;;;;10.03;3.73;;;;;;;;;;5091949;28;20024;-69
2021/03/30 10:54:37;;;;;;;13.90;4.10;;;;;;;;;;5091816;28;20020;-69
2021/03/30 10:57:05;;;;;;;8.90;3.73;;;;;;;;;;5087794;28;20042;-69
2021/03/30 10:59:30;;;;;;;13.20;3.93;;;;;;;;;;5080498;28;20052;-69
2021/03/30 11:01:56;;;;;;;11.27;3.77;;;;;;;;;;5081121;28;20082;-69
2021/03/30 11:04:21;;;;;;;15.97;4.00;;;;;;;;;;5077124;28;20587;-69
2021/03/30 11:06:46;;;;;;;9.80;2.90;;;;;;;;;;5091995;28;20050;-69
2021/03/30 11:09:12;;;;;;;10.93;3.43;;;;;;;;;;5091950;28;20055;-69
2021/03/30 11:11:39;;;;;;;10.50;4.07;;;;;;;;;;5080912;28;20416;-69
2021/03/30 11:14:05;;;;;;;14.73;3.30;;;;;;;;;;5075518;28;20027;-69
2021/03/30 11:16:30;;;;;;;9.77;4.33;;;;;;;;;;5080585;28;20480;-69
2021/03/30 11:18:56;;;;;;;12.37;4.07;;;;;;;;;;5076107;28;20020;-69
2021/03/30 11:21:21;;;;;;;14.33;3.60;;;;;;;;;;5081456;28;20028;-69
2021/03/30 11:23:47;;;;;;;11.27;3.00;;;;;;;;;;5072894;28;20101;-69
2021/03/30 11:26:12;;;;;;;13.87;4.27;;;;;;;;;;5090469;28;20096;-69
2021/03/30 11:28:41;;;;;;;14.30;4.80;;;;;;;;;;5084940;28;20059;-68
2021/03/30 11:31:09;;;;;;;13.53;4.37;;;;;;;;;;5091613;28;20023;-69
2021/03/30 11:33:42;;;;;;;13.50;4.60;;;;;;;;;;5087213;28;20016;-69
2021/03/30 11:36:16;;;;;;;13.30;4.87;;;;;;;;;;5083607;28;20077;-69
2021/03/30 11:38:42;;;;;;;11.33;4.00;;;;;;;;;;5091524;28;20107;-69
2021/03/30 11:41:09;;;;;;;12.40;3.60;;;;;;;;;;5092256;28;20508;-68
2021/03/30 11:43:35;;;;;;;11.10;4.30;;;;;;;;;;5091705;28;20027;-69
2021/03/30 11:46:00;;;;;;;15.93;4.90;;;;;;;;;;5091406;28;20039;-69
2021/03/30 11:48:25;;;;;;;10.57;3.93;;;;;;;;;;5071266;28;20425;-69
2021/03/30 11:50:50;;;;;;;13.90;4.13;;;;;;;;;;5089765;28;20423;-69
2021/03/30 11:53:16;;;;;;;14.53;4.10;;;;;;;;;;5091958;28;20020;-69
2021/03/30 11:55:41;;;;;;;12.50;4.27;;;;;;;;;;5091743;28;20493;-69
2021/03/30 11:58:07;;;;;;;13.13;4.10;;;;;;;;;;5081799;28;20494;-69
2021/03/30 12:00:32;;;;;;;9.97;4.20;;;;;;;;;;5091769;28;20028;-69
2021/03/30 12:02:57;;;;;;;8.53;3.50;;;;;;;;;;5091278;28;20044;-69
2021/03/30 12:05:23;;;;;;;12.63;4.17;;;;;;;;;;5093261;28;20046;-69
2021/03/30 12:07:48;;;;;;;12.90;4.40;;;;;;;;;;5076585;28;20073;-69
2021/03/30 12:10:14;;;;;;;10.07;4.03;;;;;;;;;;5088498;28;20380;-69
2021/03/30 12:12:40;;;;;;;12.50;3.60;;;;;;;;;;5095450;28;20368;-69
2021/03/30 12:15:08;;;;;;;12.53;4.90;;;;;;;;;;5094818;28;20055;-69
2021/03/30 12:17:33;;;;;;;11.53;4.10;;;;;;;;;;5095058;28;20020;-69
2021/03/30 12:19:59;;;;;;;12.20;4.18;;;;;;;;;;5095036;28;20429;-69
2021/03/30 12:22:24;;;;;;;13.48;4.35;;;;;;;;;;5095631;28;20057;-69
2021/03/30 12:24:49;;;;;;;11.98;3.95;;;;;;;;;;5095075;28;20649;-70
2021/03/30 12:27:15;;;;;;;9.75;3.80;;;;;;;;;;5095245;28;20107;-70
2021/03/30 12:29:40;;;;;;;10.68;3.63;;;;;;;;;;5094723;28;20035;-69
2021/03/30 12:32:07;;;;;;;10.85;4.10;;;;;;;;;;5095375;28;20016;-69
2021/03/30 12:34:34;;;;;;;11.82;4.20;;;;;;;;;;5094864;28;20025;-69
2021/03/30 12:37:00;;;;;;;10.18;3.78;;;;;;;;;;5095318;28;20074;-70
2021/03/30 12:39:25;;;;;;;11.73;4.70;;;;;;;;;;5094417;28;20024;-69
2021/03/30 12:41:50;;;;;;;12.13;4.47;;;;;;;;;;5095260;28;20067;-70
2021/03/30 12:44:17;;;;;;;11.45;4.45;;;;;;;;;;5094844;28;20016;-70
2021/03/30 12:46:43;;;;;;;11.77;4.50;;;;;;;;;;5094713;28;20034;-70
2021/03/30 12:49:08;;;;;;;10.75;4.45;;;;;;;;;;5094576;28;20027;-70
2021/03/30 12:51:33;;;;;;;10.90;4.28;;;;;;;;;;5094633;28;20088;-70
2021/03/30 12:53:59;;;;;;;12.60;4.38;;;;;;;;;;5094910;28;20024;-69
2021/03/30 12:56:24;;;;;;;11.25;4.45;;;;;;;;;;5093817;28;20141;-70
2021/03/30 12:58:49;;;;;;;9.48;4.10;;;;;;;;;;5086183;28;20024;-70
2021/03/30 13:01:15;;;;;;;11.52;4.25;;;;;;;;;;5094649;28;20028;-69
2021/03/30 13:03:40;;;;;;;9.90;4.55;;;;;;;;;;5094054;28;20051;-69
2021/03/30 13:06:05;;;;;;;9.75;4.22;;;;;;;;;;5081301;28;20031;-70
2021/03/30 13:08:31;;;;;;;12.13;4.55;;;;;;;;;;5083344;28;20453;-70
2021/03/30 13:10:56;;;;;;;12.02;4.88;;;;;;;;;;5092520;28;20020;-70
2021/03/30 13:13:21;;;;;;;10.02;4.07;;;;;;;;;;5094836;28;20099;-70
2021/03/30 13:15:47;;;;;;;11.40;4.63;;;;;;;;;;5093697;28;20008;-70
2021/03/30 13:18:12;;;;;;;10.57;4.07;;;;;;;;;;5082174;28;20107;-70
2021/03/30 13:20:37;;;;;;;13.32;4.30;;;;;;;;;;5090007;28;20028;-70
2021/03/30 13:23:03;;;;;;;9.77;4.18;;;;;;;;;;5094557;28;20480;-69
2021/03/30 13:25:33;;;;;;;9.85;4.28;;;;;;;;;;5093952;28;20027;-69
2021/03/30 13:27:59;;;;;;;8.27;3.90;;;;;;;;;;5094163;28;20129;-70
2021/03/30 13:30:24;;;;;;;10.55;4.43;;;;;;;;;;5093320;28;20470;-70
2021/03/30 13:32:50;;;;;;;8.90;3.80;;;;;;;;;;5092917;28;20098;-70
2021/03/30 13:35:15;;;;;;;11.13;4.25;;;;;;;;;;5092972;28;20073;-70
2021/03/30 13:37:40;;;;;;;8.00;3.90;;;;;;;;;;5093839;28;20056;-70
2021/03/30 13:40:06;;;;;;;9.05;3.60;;;;;;;;;;5091313;28;20019;-70
2021/03/30 13:42:31;;;;;;;9.27;4.55;;;;;;;;;;5083529;28;20389;-70
2021/03/30 13:44:56;;;;;;;12.35;4.07;;;;;;;;;;5093543;28;20023;-70
2021/03/30 13:47:22;;;;;;;10.07;3.92;;;;;;;;;;5082765;28;20025;-70
2021/03/30 13:49:47;;;;;;;8.13;4.03;;;;;;;;;;5082978;28;20482;-70
2021/03/30 13:52:12;;;;;;;7.97;3.35;;;;;;;;;;5088273;28;20028;-70
2021/03/30 13:54:38;;;;;;;9.18;3.90;;;;;;;;;;5079327;28;20024;-70
2021/03/30 13:57:03;;;;;;;11.55;4.45;;;;;;;;;;5089306;28;20357;-70
2021/03/30 13:59:29;;;;;;;9.50;3.67;;;;;;;;;;5092326;28;20093;-70
2021/03/30 14:01:55;;;;;;;10.63;4.10;;;;;;;;;;5082193;28;20036;-70
2021/03/30 14:04:20;;;;;;;8.93;3.45;;;;;;;;;;5088419;28;20500;-70
2021/03/30 14:06:46;;;;;;;7.45;3.72;;;;;;;;;;5092536;28;20074;-70
2021/03/30 14:09:11;;;;;;;11.48;3.78;;;;;;;;;;5091714;28;20020;-70
2021/03/30 14:11:49;;;;;;;11.88;4.05;;;;;;;;;;5087495;28;20019;-70
2021/03/30 14:14:18;;;;;;;9.07;4.20;;;;;;;;;;5090880;28;20475;-70
2021/03/30 14:16:49;;;;;;;10.52;4.15;;;;;;;;;;5083442;28;20024;-70
2021/03/30 14:21:47;;;;;;;9.07;4.15;;;;;;;;;;5090790;28;20024;-70
2021/03/30 14:24:43;;;;;;;11.48;4.38;;;;;;;;;;5088979;28;20030;-70
2021/03/30 14:27:12;;;;;;;14.25;4.53;;;;;;;;;;5065865;28;20363;-70
2021/03/30 14:29:49;;;;;;;8.07;3.55;;;;;;;;;;5080084;28;20027;-70
2021/03/30 14:32:15;;;;;;;9.23;3.50;;;;;;;;;;5069108;28;20051;-70
2021/03/30 14:34:41;;;;;;;7.32;3.47;;;;;;;;;;5089160;28;20052;-70
2021/03/30 14:37:07;;;;;;;10.77;4.32;;;;;;;;;;5078516;28;20091;-70
2021/03/30 14:39:32;;;;;;;10.23;3.60;;;;;;;;;;5091692;28;20174;-70
2021/03/30 14:42:06;;;;;;;9.02;3.72;;;;;;;;;;5078580;28;20457;-70
2021/03/30 14:53:11;;;;;;;9.65;3.83;;;;;;;;;;5089018;28;20031;-70